createdAt,value
2023-03-15T00:07:30.327Z,78.36
2023-03-15T00:17:30.358Z,80.63
2023-03-15T00:27:30.958Z,82.74
2023-03-15T00:37:30.821Z,85.40
2023-03-15T00:47:31.339Z,84.88
2023-03-15T00:57:31.301Z,87.78
2023-03-15T01:07:31.419Z,91.41
2023-03-15T01:17:31.494Z,94.01
2023-03-15T01:27:31.813Z,93.91
2023-03-15T01:37:31.853Z,92.82
2023-03-15T01:47:32.581Z,91.28
2023-03-15T01:57:32.217Z,91.86
2023-03-15T02:07:33.460Z,90.72
2023-03-15T02:17:32.688Z,91.24
2023-03-15T02:27:33.022Z,92.38
2023-03-15T02:37:33.107Z,91.86
2023-03-15T02:47:33.173Z,91.72
2023-03-15T02:57:33.337Z,92.38
2023-03-15T03:07:33.645Z,92.38
2023-03-15T03:17:33.834Z,89.98
2023-03-15T03:27:34.152Z,92.27
2023-03-15T03:37:34.185Z,91.89
2023-03-15T03:47:34.524Z,92.06
2023-03-15T03:57:34.555Z,92.85
2023-03-15T04:07:34.841Z,93.64
2023-03-15T04:17:34.881Z,93.01
2023-03-15T04:27:35.223Z,92.85
2023-03-15T04:37:35.301Z,93.52
2023-03-15T04:47:35.591Z,93.73
2023-03-15T04:57:35.663Z,93.52
2023-03-15T05:07:35.976Z,93.46
2023-03-15T05:17:36.025Z,93.14
2023-03-15T05:27:36.347Z,92.93
2023-03-15T05:37:36.380Z,93.14
2023-03-15T05:47:36.706Z,90.75
2023-03-15T05:57:36.735Z,91.06
2023-03-15T06:07:37.066Z,90.75
2023-03-15T06:17:37.099Z,90.12
2023-03-15T06:27:37.341Z,88.24
2023-03-15T06:37:37.617Z,89.54
2023-03-15T06:47:37.716Z,89.70
2023-03-15T06:57:37.753Z,90.91
2023-03-15T07:07:38.088Z,86.40
2023-03-15T07:17:38.119Z,84.34
2023-03-15T07:27:39.382Z,81.39
2023-03-15T07:37:44.137Z,80.49
2023-03-15T07:47:39.866Z,77.75
2023-03-15T07:57:39.112Z,73.43
2023-03-15T08:07:40.247Z,76.71
2023-03-15T08:17:39.579Z,66.09
2023-03-15T08:27:39.635Z,63.37
2023-03-15T08:37:40.987Z,61.35
2023-03-15T08:47:40.023Z,57.26
2023-03-15T08:57:40.326Z,56.13
2023-03-15T09:07:40.455Z,54.41
2023-03-15T09:17:48.261Z,58.53
2023-03-15T09:27:40.887Z,56.36
2023-03-15T09:37:41.176Z,48.16
2023-03-15T09:47:41.205Z,50.58
2023-03-15T09:57:41.557Z,46.88
2023-03-15T10:07:41.946Z,42.02
2023-03-15T10:17:51.861Z,46.46
2023-03-15T10:27:41.893Z,46.03
2023-03-15T10:37:42.184Z,46.91
2023-03-15T10:47:45.227Z,44.68
2023-03-15T10:57:43.613Z,43.04
2023-03-15T11:07:42.945Z,44.82
2023-03-15T11:17:42.985Z,40.26
2023-03-15T11:27:44.224Z,44.47
2023-03-15T11:37:43.470Z,38.73
2023-03-15T11:47:43.776Z,38.95
2023-03-15T11:57:43.839Z,38.81
2023-03-15T12:07:44.137Z,42.90
2023-03-15T12:17:44.285Z,38.24
2023-03-15T12:27:44.418Z,37.04
2023-03-15T12:37:44.445Z,37.60
2023-03-15T12:47:44.795Z,40.52
2023-03-15T12:57:44.844Z,36.39
2023-03-15T13:07:51.062Z,36.46
2023-03-15T13:17:46.050Z,37.07
2023-03-15T13:27:45.112Z,37.98
2023-03-15T13:37:45.344Z,36.22
2023-03-15T13:47:45.588Z,34.20
2023-03-15T13:57:45.639Z,34.72
2023-03-15T14:07:45.960Z,37.18
2023-03-15T14:17:45.989Z,36.27
2023-03-15T14:27:46.230Z,34.58
2023-03-15T14:37:46.465Z,32.78
2023-03-15T14:47:56.008Z,34.65
2023-03-15T14:57:47.860Z,35.16
2023-03-15T15:07:47.062Z,38.31
2023-03-15T15:17:47.105Z,35.25
2023-03-15T15:27:47.439Z,33.87
2023-03-15T15:37:47.466Z,39.51
2023-03-15T15:47:47.906Z,41.38
2023-03-15T15:57:47.806Z,37.02
2023-03-15T16:07:48.055Z,38.03
2023-03-15T16:17:48.566Z,39.28
2023-03-15T16:27:49.648Z,38.99
2023-03-15T16:37:48.806Z,39.83
2023-03-15T16:47:49.197Z,44.02
2023-03-15T16:57:49.359Z,39.94
2023-03-15T17:07:49.689Z,39.54
2023-03-15T17:17:49.723Z,41.60
2023-03-15T17:27:49.914Z,43.26
2023-03-15T17:37:50.152Z,45.10
2023-03-15T17:47:50.446Z,47.29
2023-03-15T17:57:55.052Z,48.32
2023-03-15T18:07:58.671Z,52.48
2023-03-15T18:17:51.536Z,52.11
2023-03-15T18:27:51.187Z,53.58
2023-03-15T18:37:51.173Z,55.43
2023-03-15T18:47:54.752Z,56.18
2023-03-15T18:57:51.562Z,53.83
2023-03-15T19:07:51.727Z,55.57
2023-03-15T19:17:51.846Z,55.49
2023-03-15T19:27:52.212Z,55.30
2023-03-15T19:37:52.283Z,58.61
2023-03-15T19:47:52.544Z,58.53
2023-03-15T19:57:52.621Z,56.70
2023-03-15T20:07:52.915Z,57.32
2023-03-15T20:17:52.984Z,56.93
2023-03-15T20:27:54.026Z,60.27
2023-03-15T20:37:53.270Z,61.40
2023-03-15T20:47:53.592Z,63.78
2023-03-15T20:57:54.763Z,65.08
2023-03-15T21:07:56.121Z,65.11
2023-03-15T21:17:53.900Z,64.28
2023-03-15T21:27:54.031Z,63.22
2023-03-15T21:37:53.932Z,61.87
2023-03-15T21:47:54.283Z,62.63
2023-03-15T21:57:54.330Z,62.11
2023-03-15T22:07:56.569Z,63.04
2023-03-15T22:17:54.832Z,66.62
2023-03-15T22:27:55.118Z,68.28
2023-03-15T22:37:55.158Z,68.10
2023-03-15T22:47:55.484Z,65.62
2023-03-15T22:57:55.515Z,68.34
2023-03-15T23:07:55.933Z,70.48
2023-03-15T23:17:55.966Z,71.31
2023-03-15T23:27:56.224Z,72.63
2023-03-15T23:37:56.518Z,73.07
2023-03-15T23:47:56.610Z,73.42
2023-03-15T23:57:56.884Z,73.63
